sensor_id;sensor_type;location;lat;lon;timestamp;P1;durP1;ratioP1;P2;durP2;ratioP2
43114;SDS011;28727;50.068;14.452;2022-07-06T00:01:15;6.07;;;2.83;;
43114;SDS011;28727;50.068;14.452;2022-07-06T00:03:47;5.07;;;3.30;;
43114;SDS011;28727;50.068;14.452;2022-07-06T00:06:25;6.90;;;3.00;;
43114;SDS011;28727;50.068;14.452;2022-07-06T00:08:57;6.65;;;3.15;;
43114;SDS011;28727;50.068;14.452;2022-07-06T00:11:29;6.72;;;3.17;;
43114;SDS011;28727;50.068;14.452;2022-07-06T00:14:01;6.65;;;3.08;;
43114;SDS011;28727;50.068;14.452;2022-07-06T00:16:32;5.60;;;3.30;;
43114;SDS011;28727;50.068;14.452;2022-07-06T00:19:05;6.22;;;3.47;;
43114;SDS011;28727;50.068;14.452;2022-07-06T00:21:36;6.20;;;3.20;;
43114;SDS011;28727;50.068;14.452;2022-07-06T00:24:08;5.47;;;3.17;;
43114;SDS011;28727;50.068;14.452;2022-07-06T00:26:40;5.60;;;3.22;;
43114;SDS011;28727;50.068;14.452;2022-07-06T00:29:12;4.20;;;2.90;;
43114;SDS011;28727;50.068;14.452;2022-07-06T00:31:44;5.05;;;2.80;;
43114;SDS011;28727;50.068;14.452;2022-07-06T00:34:16;4.80;;;3.10;;
43114;SDS011;28727;50.068;14.452;2022-07-06T00:36:48;5.18;;;3.45;;
43114;SDS011;28727;50.068;14.452;2022-07-06T00:39:21;5.40;;;2.92;;
43114;SDS011;28727;50.068;14.452;2022-07-06T00:41:53;4.25;;;2.95;;
43114;SDS011;28727;50.068;14.452;2022-07-06T00:44:25;4.60;;;2.90;;
43114;SDS011;28727;50.068;14.452;2022-07-06T00:46:57;6.03;;;3.05;;
43114;SDS011;28727;50.068;14.452;2022-07-06T00:49:29;6.22;;;3.10;;
43114;SDS011;28727;50.068;14.452;2022-07-06T00:52:19;4.00;;;2.88;;
43114;SDS011;28727;50.068;14.452;2022-07-06T00:54:51;4.38;;;2.88;;
43114;SDS011;28727;50.068;14.452;2022-07-06T00:57:23;4.40;;;2.58;;
43114;SDS011;28727;50.068;14.452;2022-07-06T00:59:55;5.60;;;2.78;;
43114;SDS011;28727;50.068;14.452;2022-07-06T01:02:30;6.72;;;2.53;;
43114;SDS011;28727;50.068;14.452;2022-07-06T01:05:06;4.28;;;2.60;;
43114;SDS011;28727;50.068;14.452;2022-07-06T01:07:40;5.50;;;2.50;;
43114;SDS011;28727;50.068;14.452;2022-07-06T01:12:47;3.83;;;2.50;;
43114;SDS011;28727;50.068;14.452;2022-07-06T01:15:21;4.18;;;2.67;;
43114;SDS011;28727;50.068;14.452;2022-07-06T01:18:00;4.72;;;2.33;;
43114;SDS011;28727;50.068;14.452;2022-07-06T01:20:36;6.20;;;2.90;;
43114;SDS011;28727;50.068;14.452;2022-07-06T01:23:07;5.38;;;2.55;;
43114;SDS011;28727;50.068;14.452;2022-07-06T01:25:39;5.80;;;2.90;;
43114;SDS011;28727;50.068;14.452;2022-07-06T01:28:11;4.82;;;2.85;;
43114;SDS011;28727;50.068;14.452;2022-07-06T01:30:43;8.80;;;2.97;;
43114;SDS011;28727;50.068;14.452;2022-07-06T01:33:19;6.57;;;2.90;;
43114;SDS011;28727;50.068;14.452;2022-07-06T01:35:51;6.88;;;3.25;;
43114;SDS011;28727;50.068;14.452;2022-07-06T01:38:22;5.78;;;3.35;;
43114;SDS011;28727;50.068;14.452;2022-07-06T01:40:54;7.65;;;3.13;;
43114;SDS011;28727;50.068;14.452;2022-07-06T01:43:26;5.40;;;3.00;;
43114;SDS011;28727;50.068;14.452;2022-07-06T01:45:58;5.43;;;3.05;;
43114;SDS011;28727;50.068;14.452;2022-07-06T01:48:30;4.70;;;2.53;;
43114;SDS011;28727;50.068;14.452;2022-07-06T01:51:02;8.30;;;2.50;;
43114;SDS011;28727;50.068;14.452;2022-07-06T01:53:35;5.63;;;2.35;;
43114;SDS011;28727;50.068;14.452;2022-07-06T01:56:09;3.85;;;2.00;;
43114;SDS011;28727;50.068;14.452;2022-07-06T01:58:42;4.80;;;2.65;;
43114;SDS011;28727;50.068;14.452;2022-07-06T02:01:15;4.13;;;1.98;;
43114;SDS011;28727;50.068;14.452;2022-07-06T02:03:51;5.45;;;2.17;;
43114;SDS011;28727;50.068;14.452;2022-07-06T02:06:23;6.38;;;2.30;;
43114;SDS011;28727;50.068;14.452;2022-07-06T02:08:54;3.65;;;2.22;;
43114;SDS011;28727;50.068;14.452;2022-07-06T02:11:26;3.28;;;1.95;;
43114;SDS011;28727;50.068;14.452;2022-07-06T02:13:59;3.75;;;2.22;;
43114;SDS011;28727;50.068;14.452;2022-07-06T02:16:31;2.92;;;2.00;;
43114;SDS011;28727;50.068;14.452;2022-07-06T02:19:03;5.70;;;2.25;;
43114;SDS011;28727;50.068;14.452;2022-07-06T02:21:37;4.10;;;2.40;;
43114;SDS011;28727;50.068;14.452;2022-07-06T02:24:09;4.13;;;2.13;;
43114;SDS011;28727;50.068;14.452;2022-07-06T02:26:41;5.07;;;2.05;;
43114;SDS011;28727;50.068;14.452;2022-07-06T02:29:13;4.45;;;2.22;;
43114;SDS011;28727;50.068;14.452;2022-07-06T02:31:45;4.82;;;2.08;;
43114;SDS011;28727;50.068;14.452;2022-07-06T02:34:20;6.47;;;2.00;;
43114;SDS011;28727;50.068;14.452;2022-07-06T02:36:53;4.45;;;2.00;;
43114;SDS011;28727;50.068;14.452;2022-07-06T02:39:25;5.53;;;2.05;;
43114;SDS011;28727;50.068;14.452;2022-07-06T02:42:00;3.47;;;2.10;;
43114;SDS011;28727;50.068;14.452;2022-07-06T02:44:32;5.05;;;1.95;;
43114;SDS011;28727;50.068;14.452;2022-07-06T02:47:04;3.22;;;2.03;;
43114;SDS011;28727;50.068;14.452;2022-07-06T02:49:36;5.00;;;2.45;;
43114;SDS011;28727;50.068;14.452;2022-07-06T02:52:08;4.57;;;1.90;;
43114;SDS011;28727;50.068;14.452;2022-07-06T02:54:40;2.70;;;1.92;;
43114;SDS011;28727;50.068;14.452;2022-07-06T02:57:12;3.13;;;2.10;;
43114;SDS011;28727;50.068;14.452;2022-07-06T02:59:44;2.97;;;1.98;;
43114;SDS011;28727;50.068;14.452;2022-07-06T03:02:17;3.97;;;1.92;;
43114;SDS011;28727;50.068;14.452;2022-07-06T03:04:50;3.17;;;2.10;;
43114;SDS011;28727;50.068;14.452;2022-07-06T03:07:22;2.45;;;1.75;;
43114;SDS011;28727;50.068;14.452;2022-07-06T03:09:54;3.15;;;2.05;;
43114;SDS011;28727;50.068;14.452;2022-07-06T03:12:26;3.35;;;1.73;;
43114;SDS011;28727;50.068;14.452;2022-07-06T03:14:58;5.63;;;1.90;;
43114;SDS011;28727;50.068;14.452;2022-07-06T03:17:33;6.80;;;2.00;;
43114;SDS011;28727;50.068;14.452;2022-07-06T03:20:05;3.88;;;1.90;;
43114;SDS011;28727;50.068;14.452;2022-07-06T03:22:37;4.60;;;1.98;;
43114;SDS011;28727;50.068;14.452;2022-07-06T03:25:13;4.22;;;2.08;;
43114;SDS011;28727;50.068;14.452;2022-07-06T03:27:45;3.75;;;2.13;;
43114;SDS011;28727;50.068;14.452;2022-07-06T03:30:20;3.13;;;1.98;;
43114;SDS011;28727;50.068;14.452;2022-07-06T03:32:57;4.30;;;2.00;;
43114;SDS011;28727;50.068;14.452;2022-07-06T03:35:30;4.03;;;1.92;;
43114;SDS011;28727;50.068;14.452;2022-07-06T03:38:04;3.00;;;2.20;;
43114;SDS011;28727;50.068;14.452;2022-07-06T03:40:37;3.00;;;2.10;;
43114;SDS011;28727;50.068;14.452;2022-07-06T03:43:09;2.28;;;1.70;;
43114;SDS011;28727;50.068;14.452;2022-07-06T03:45:42;4.28;;;1.80;;
43114;SDS011;28727;50.068;14.452;2022-07-06T03:48:15;2.88;;;2.13;;
43114;SDS011;28727;50.068;14.452;2022-07-06T03:50:46;3.78;;;1.90;;
43114;SDS011;28727;50.068;14.452;2022-07-06T03:53:18;4.65;;;2.08;;
43114;SDS011;28727;50.068;14.452;2022-07-06T03:55:50;2.95;;;1.55;;
43114;SDS011;28727;50.068;14.452;2022-07-06T03:58:41;3.83;;;2.15;;
43114;SDS011;28727;50.068;14.452;2022-07-06T04:01:13;2.67;;;1.80;;
43114;SDS011;28727;50.068;14.452;2022-07-06T04:03:45;2.65;;;2.00;;
43114;SDS011;28727;50.068;14.452;2022-07-06T04:06:17;2.72;;;1.92;;
43114;SDS011;28727;50.068;14.452;2022-07-06T04:08:50;4.32;;;2.20;;
43114;SDS011;28727;50.068;14.452;2022-07-06T04:11:22;3.95;;;1.95;;
43114;SDS011;28727;50.068;14.452;2022-07-06T04:13:54;3.38;;;1.73;;
43114;SDS011;28727;50.068;14.452;2022-07-06T04:16:27;3.15;;;1.63;;
43114;SDS011;28727;50.068;14.452;2022-07-06T04:18:59;2.13;;;1.70;;
43114;SDS011;28727;50.068;14.452;2022-07-06T04:21:31;3.15;;;1.80;;
43114;SDS011;28727;50.068;14.452;2022-07-06T04:24:03;3.15;;;1.95;;
43114;SDS011;28727;50.068;14.452;2022-07-06T04:26:37;2.55;;;2.00;;
43114;SDS011;28727;50.068;14.452;2022-07-06T04:29:09;2.22;;;2.03;;
43114;SDS011;28727;50.068;14.452;2022-07-06T04:31:42;3.13;;;2.15;;
43114;SDS011;28727;50.068;14.452;2022-07-06T04:34:15;4.32;;;2.28;;
43114;SDS011;28727;50.068;14.452;2022-07-06T04:36:46;4.53;;;2.55;;
43114;SDS011;28727;50.068;14.452;2022-07-06T04:39:19;4.05;;;2.25;;
43114;SDS011;28727;50.068;14.452;2022-07-06T04:41:51;5.30;;;2.40;;
43114;SDS011;28727;50.068;14.452;2022-07-06T04:44:26;3.70;;;1.83;;
43114;SDS011;28727;50.068;14.452;2022-07-06T04:46:58;4.30;;;2.20;;
43114;SDS011;28727;50.068;14.452;2022-07-06T04:49:31;3.72;;;1.80;;
43114;SDS011;28727;50.068;14.452;2022-07-06T04:52:03;3.35;;;1.80;;
43114;SDS011;28727;50.068;14.452;2022-07-06T04:57:09;4.80;;;1.67;;
43114;SDS011;28727;50.068;14.452;2022-07-06T04:59:45;3.15;;;1.92;;
43114;SDS011;28727;50.068;14.452;2022-07-06T05:02:17;3.33;;;1.70;;
43114;SDS011;28727;50.068;14.452;2022-07-06T05:04:49;6.03;;;1.55;;
43114;SDS011;28727;50.068;14.452;2022-07-06T05:07:22;2.85;;;1.50;;
43114;SDS011;28727;50.068;14.452;2022-07-06T05:09:54;4.60;;;1.85;;
43114;SDS011;28727;50.068;14.452;2022-07-06T05:12:26;2.47;;;1.50;;
43114;SDS011;28727;50.068;14.452;2022-07-06T05:14:58;1.73;;;1.27;;
43114;SDS011;28727;50.068;14.452;2022-07-06T05:17:31;3.00;;;1.42;;
43114;SDS011;28727;50.068;14.452;2022-07-06T05:20:05;1.75;;;1.30;;
43114;SDS011;28727;50.068;14.452;2022-07-06T05:22:41;2.13;;;1.30;;
43114;SDS011;28727;50.068;14.452;2022-07-06T05:25:19;3.88;;;1.48;;
43114;SDS011;28727;50.068;14.452;2022-07-06T05:27:51;1.98;;;1.35;;
43114;SDS011;28727;50.068;14.452;2022-07-06T05:30:23;2.17;;;1.38;;
43114;SDS011;28727;50.068;14.452;2022-07-06T05:32:55;2.03;;;1.40;;
43114;SDS011;28727;50.068;14.452;2022-07-06T05:35:30;1.92;;;1.60;;
43114;SDS011;28727;50.068;14.452;2022-07-06T05:38:23;2.63;;;1.52;;
43114;SDS011;28727;50.068;14.452;2022-07-06T05:40:57;1.95;;;1.45;;
43114;SDS011;28727;50.068;14.452;2022-07-06T05:43:29;5.05;;;1.45;;
43114;SDS011;28727;50.068;14.452;2022-07-06T05:46:04;2.63;;;1.60;;
43114;SDS011;28727;50.068;14.452;2022-07-06T05:48:38;5.75;;;1.73;;
43114;SDS011;28727;50.068;14.452;2022-07-06T05:51:29;6.32;;;1.50;;
43114;SDS011;28727;50.068;14.452;2022-07-06T05:54:01;2.63;;;1.60;;
43114;SDS011;28727;50.068;14.452;2022-07-06T05:56:33;2.80;;;1.27;;
43114;SDS011;28727;50.068;14.452;2022-07-06T05:59:06;2.33;;;1.38;;
43114;SDS011;28727;50.068;14.452;2022-07-06T06:01:41;3.13;;;1.60;;
43114;SDS011;28727;50.068;14.452;2022-07-06T06:04:17;3.17;;;2.08;;
43114;SDS011;28727;50.068;14.452;2022-07-06T06:06:49;13.02;;;4.57;;
43114;SDS011;28727;50.068;14.452;2022-07-06T06:09:21;6.90;;;2.70;;
43114;SDS011;28727;50.068;14.452;2022-07-06T06:11:55;5.97;;;1.80;;
43114;SDS011;28727;50.068;14.452;2022-07-06T06:14:28;4.07;;;2.05;;
43114;SDS011;28727;50.068;14.452;2022-07-06T06:17:00;4.43;;;1.80;;
43114;SDS011;28727;50.068;14.452;2022-07-06T06:19:31;2.95;;;1.55;;
43114;SDS011;28727;50.068;14.452;2022-07-06T06:22:05;2.25;;;1.40;;
43114;SDS011;28727;50.068;14.452;2022-07-06T06:24:38;2.63;;;1.67;;
43114;SDS011;28727;50.068;14.452;2022-07-06T06:27:10;6.82;;;1.50;;
43114;SDS011;28727;50.068;14.452;2022-07-06T06:29:41;3.22;;;1.63;;
43114;SDS011;28727;50.068;14.452;2022-07-06T06:32:15;3.90;;;1.40;;
43114;SDS011;28727;50.068;14.452;2022-07-06T06:34:47;5.38;;;2.83;;
43114;SDS011;28727;50.068;14.452;2022-07-06T06:37:19;4.95;;;1.88;;
43114;SDS011;28727;50.068;14.452;2022-07-06T06:39:50;3.47;;;1.25;;
43114;SDS011;28727;50.068;14.452;2022-07-06T06:42:22;3.45;;;1.90;;
43114;SDS011;28727;50.068;14.452;2022-07-06T06:44:55;2.97;;;1.60;;
43114;SDS011;28727;50.068;14.452;2022-07-06T06:47:28;5.55;;;1.77;;
43114;SDS011;28727;50.068;14.452;2022-07-06T06:50:00;6.47;;;2.00;;
43114;SDS011;28727;50.068;14.452;2022-07-06T06:52:32;4.22;;;1.38;;
43114;SDS011;28727;50.068;14.452;2022-07-06T06:55:11;2.13;;;1.50;;
43114;SDS011;28727;50.068;14.452;2022-07-06T06:57:43;4.82;;;1.73;;
43114;SDS011;28727;50.068;14.452;2022-07-06T07:00:15;2.47;;;1.48;;
43114;SDS011;28727;50.068;14.452;2022-07-06T07:02:47;4.45;;;1.88;;
43114;SDS011;28727;50.068;14.452;2022-07-06T07:05:19;3.00;;;1.48;;
43114;SDS011;28727;50.068;14.452;2022-07-06T07:07:51;2.75;;;1.50;;
43114;SDS011;28727;50.068;14.452;2022-07-06T07:10:23;4.88;;;2.00;;
43114;SDS011;28727;50.068;14.452;2022-07-06T07:12:54;3.03;;;1.73;;
43114;SDS011;28727;50.068;14.452;2022-07-06T07:15:26;5.13;;;1.50;;
43114;SDS011;28727;50.068;14.452;2022-07-06T07:17:58;4.20;;;1.60;;
43114;SDS011;28727;50.068;14.452;2022-07-06T07:20:30;2.25;;;1.60;;
43114;SDS011;28727;50.068;14.452;2022-07-06T07:23:02;2.22;;;1.35;;
43114;SDS011;28727;50.068;14.452;2022-07-06T07:25:34;4.25;;;1.58;;
43114;SDS011;28727;50.068;14.452;2022-07-06T07:28:06;4.03;;;1.95;;
43114;SDS011;28727;50.068;14.452;2022-07-06T07:30:38;3.35;;;1.40;;
43114;SDS011;28727;50.068;14.452;2022-07-06T07:33:10;5.15;;;1.50;;
43114;SDS011;28727;50.068;14.452;2022-07-06T07:35:41;3.50;;;1.30;;
43114;SDS011;28727;50.068;14.452;2022-07-06T07:38:13;2.67;;;1.23;;
43114;SDS011;28727;50.068;14.452;2022-07-06T07:40:45;3.53;;;1.73;;
43114;SDS011;28727;50.068;14.452;2022-07-06T07:43:17;4.55;;;1.70;;
43114;SDS011;28727;50.068;14.452;2022-07-06T07:45:49;3.85;;;1.80;;
43114;SDS011;28727;50.068;14.452;2022-07-06T07:48:20;2.38;;;1.30;;
43114;SDS011;28727;50.068;14.452;2022-07-06T07:50:53;2.20;;;1.20;;
43114;SDS011;28727;50.068;14.452;2022-07-06T07:53:24;2.75;;;1.33;;
43114;SDS011;28727;50.068;14.452;2022-07-06T07:55:56;3.65;;;1.40;;
43114;SDS011;28727;50.068;14.452;2022-07-06T07:58:28;2.90;;;1.30;;
43114;SDS011;28727;50.068;14.452;2022-07-06T08:01:00;5.40;;;1.63;;
43114;SDS011;28727;50.068;14.452;2022-07-06T08:03:32;2.47;;;1.42;;
43114;SDS011;28727;50.068;14.452;2022-07-06T08:06:05;8.43;;;1.63;;
43114;SDS011;28727;50.068;14.452;2022-07-06T08:08:36;4.50;;;1.40;;
43114;SDS011;28727;50.068;14.452;2022-07-06T08:11:08;6.60;;;1.60;;
43114;SDS011;28727;50.068;14.452;2022-07-06T08:13:50;2.17;;;1.10;;
43114;SDS011;28727;50.068;14.452;2022-07-06T08:16:24;2.30;;;1.20;;
43114;SDS011;28727;50.068;14.452;2022-07-06T08:18:57;2.03;;;1.13;;
43114;SDS011;28727;50.068;14.452;2022-07-06T08:21:29;3.47;;;1.20;;
43114;SDS011;28727;50.068;14.452;2022-07-06T08:24:00;2.72;;;1.17;;
43114;SDS011;28727;50.068;14.452;2022-07-06T08:26:35;2.80;;;0.98;;
43114;SDS011;28727;50.068;14.452;2022-07-06T08:29:07;1.95;;;1.10;;
43114;SDS011;28727;50.068;14.452;2022-07-06T08:31:39;5.40;;;1.20;;
43114;SDS011;28727;50.068;14.452;2022-07-06T08:34:30;3.22;;;1.10;;
43114;SDS011;28727;50.068;14.452;2022-07-06T08:37:04;2.05;;;1.20;;
43114;SDS011;28727;50.068;14.452;2022-07-06T08:39:36;2.63;;;1.20;;
43114;SDS011;28727;50.068;14.452;2022-07-06T08:42:08;3.08;;;1.38;;
43114;SDS011;28727;50.068;14.452;2022-07-06T08:44:41;3.50;;;1.30;;
43114;SDS011;28727;50.068;14.452;2022-07-06T08:47:14;2.87;;;1.07;;
43114;SDS011;28727;50.068;14.452;2022-07-06T08:49:49;3.28;;;1.30;;
43114;SDS011;28727;50.068;14.452;2022-07-06T08:52:22;2.45;;;1.20;;
43114;SDS011;28727;50.068;14.452;2022-07-06T08:54:55;3.88;;;1.27;;
43114;SDS011;28727;50.068;14.452;2022-07-06T08:57:27;1.17;;;0.98;;
43114;SDS011;28727;50.068;14.452;2022-07-06T08:59:59;2.17;;;1.33;;
43114;SDS011;28727;50.068;14.452;2022-07-06T09:02:31;2.50;;;1.10;;
43114;SDS011;28727;50.068;14.452;2022-07-06T09:05:03;1.52;;;1.10;;
43114;SDS011;28727;50.068;14.452;2022-07-06T09:07:35;2.38;;;1.10;;
43114;SDS011;28727;50.068;14.452;2022-07-06T09:10:28;2.83;;;1.30;;
43114;SDS011;28727;50.068;14.452;2022-07-06T09:13:06;2.15;;;1.20;;
43114;SDS011;28727;50.068;14.452;2022-07-06T09:15:39;3.58;;;1.10;;
43114;SDS011;28727;50.068;14.452;2022-07-06T09:18:12;1.48;;;1.10;;
43114;SDS011;28727;50.068;14.452;2022-07-06T09:20:44;6.60;;;1.50;;
43114;SDS011;28727;50.068;14.452;2022-07-06T09:23:16;2.80;;;1.10;;
43114;SDS011;28727;50.068;14.452;2022-07-06T09:25:48;2.38;;;1.00;;
43114;SDS011;28727;50.068;14.452;2022-07-06T09:28:21;2.28;;;0.98;;
43114;SDS011;28727;50.068;14.452;2022-07-06T09:30:55;1.77;;;1.23;;
43114;SDS011;28727;50.068;14.452;2022-07-06T09:33:55;1.65;;;1.20;;
43114;SDS011;28727;50.068;14.452;2022-07-06T09:36:36;1.73;;;1.48;;
43114;SDS011;28727;50.068;14.452;2022-07-06T09:39:25;4.03;;;1.15;;
43114;SDS011;28727;50.068;14.452;2022-07-06T09:42:00;5.93;;;1.75;;
43114;SDS011;28727;50.068;14.452;2022-07-06T09:44:38;3.60;;;1.50;;
43114;SDS011;28727;50.068;14.452;2022-07-06T09:47:12;2.17;;;1.10;;
43114;SDS011;28727;50.068;14.452;2022-07-06T09:49:45;1.90;;;1.08;;
43114;SDS011;28727;50.068;14.452;2022-07-06T09:52:17;2.42;;;1.05;;
43114;SDS011;28727;50.068;14.452;2022-07-06T09:54:50;3.17;;;1.52;;
43114;SDS011;28727;50.068;14.452;2022-07-06T09:57:21;2.70;;;1.35;;
43114;SDS011;28727;50.068;14.452;2022-07-06T09:59:54;4.57;;;1.75;;
43114;SDS011;28727;50.068;14.452;2022-07-06T10:02:26;2.78;;;1.30;;
43114;SDS011;28727;50.068;14.452;2022-07-06T10:04:59;1.90;;;1.13;;
43114;SDS011;28727;50.068;14.452;2022-07-06T10:07:32;2.15;;;1.33;;
43114;SDS011;28727;50.068;14.452;2022-07-06T10:10:06;5.38;;;1.70;;
43114;SDS011;28727;50.068;14.452;2022-07-06T10:12:39;4.15;;;1.92;;
43114;SDS011;28727;50.068;14.452;2022-07-06T10:15:13;3.17;;;1.50;;
43114;SDS011;28727;50.068;14.452;2022-07-06T10:20:20;6.38;;;2.10;;
43114;SDS011;28727;50.068;14.452;2022-07-06T10:22:52;3.00;;;1.30;;
43114;SDS011;28727;50.068;14.452;2022-07-06T10:25:26;3.80;;;1.50;;
43114;SDS011;28727;50.068;14.452;2022-07-06T10:27:59;4.43;;;1.40;;
43114;SDS011;28727;50.068;14.452;2022-07-06T10:30:31;2.30;;;1.45;;
43114;SDS011;28727;50.068;14.452;2022-07-06T10:33:04;3.30;;;1.30;;
43114;SDS011;28727;50.068;14.452;2022-07-06T10:35:38;3.08;;;1.40;;
43114;SDS011;28727;50.068;14.452;2022-07-06T10:38:12;3.38;;;1.33;;
43114;SDS011;28727;50.068;14.452;2022-07-06T10:40:45;7.22;;;1.40;;
43114;SDS011;28727;50.068;14.452;2022-07-06T10:43:37;3.25;;;1.33;;
43114;SDS011;28727;50.068;14.452;2022-07-06T10:46:13;3.72;;;1.38;;
43114;SDS011;28727;50.068;14.452;2022-07-06T10:48:48;3.50;;;1.92;;
43114;SDS011;28727;50.068;14.452;2022-07-06T10:51:27;4.38;;;1.35;;
43114;SDS011;28727;50.068;14.452;2022-07-06T10:54:04;4.35;;;1.50;;
43114;SDS011;28727;50.068;14.452;2022-07-06T10:59:20;2.88;;;1.42;;
43114;SDS011;28727;50.068;14.452;2022-07-06T11:02:11;4.15;;;1.40;;
43114;SDS011;28727;50.068;14.452;2022-07-06T11:04:48;4.68;;;1.98;;
43114;SDS011;28727;50.068;14.452;2022-07-06T11:07:20;2.80;;;1.42;;
43114;SDS011;28727;50.068;14.452;2022-07-06T11:09:56;3.65;;;1.67;;
43114;SDS011;28727;50.068;14.452;2022-07-06T11:12:30;4.30;;;1.60;;
43114;SDS011;28727;50.068;14.452;2022-07-06T11:15:01;2.50;;;1.63;;
43114;SDS011;28727;50.068;14.452;2022-07-06T11:17:34;2.83;;;1.60;;
43114;SDS011;28727;50.068;14.452;2022-07-06T11:20:10;3.50;;;1.40;;
43114;SDS011;28727;50.068;14.452;2022-07-06T11:22:43;4.15;;;1.67;;
43114;SDS011;28727;50.068;14.452;2022-07-06T11:25:15;5.05;;;1.60;;
43114;SDS011;28727;50.068;14.452;2022-07-06T11:27:48;4.32;;;1.50;;
43114;SDS011;28727;50.068;14.452;2022-07-06T11:30:20;2.67;;;1.50;;
43114;SDS011;28727;50.068;14.452;2022-07-06T11:32:52;2.35;;;1.35;;
43114;SDS011;28727;50.068;14.452;2022-07-06T11:35:24;3.67;;;1.27;;
43114;SDS011;28727;50.068;14.452;2022-07-06T11:37:57;3.22;;;1.40;;
43114;SDS011;28727;50.068;14.452;2022-07-06T11:40:28;3.00;;;1.70;;
43114;SDS011;28727;50.068;14.452;2022-07-06T11:43:00;5.75;;;1.60;;
43114;SDS011;28727;50.068;14.452;2022-07-06T11:45:35;1.92;;;1.40;;
43114;SDS011;28727;50.068;14.452;2022-07-06T11:48:10;2.33;;;1.40;;
43114;SDS011;28727;50.068;14.452;2022-07-06T11:50:43;3.03;;;1.90;;
43114;SDS011;28727;50.068;14.452;2022-07-06T11:53:15;6.90;;;2.03;;
43114;SDS011;28727;50.068;14.452;2022-07-06T11:55:51;2.75;;;1.40;;
43114;SDS011;28727;50.068;14.452;2022-07-06T11:58:24;2.55;;;1.48;;
43114;SDS011;28727;50.068;14.452;2022-07-06T12:03:37;4.10;;;1.50;;
43114;SDS011;28727;50.068;14.452;2022-07-06T12:06:13;3.00;;;1.60;;
43114;SDS011;28727;50.068;14.452;2022-07-06T12:08:50;3.58;;;1.50;;
43114;SDS011;28727;50.068;14.452;2022-07-06T12:14:00;3.20;;;1.65;;
43114;SDS011;28727;50.068;14.452;2022-07-06T12:16:34;2.35;;;1.75;;
43114;SDS011;28727;50.068;14.452;2022-07-06T12:19:07;3.67;;;1.50;;
43114;SDS011;28727;50.068;14.452;2022-07-06T12:21:43;2.97;;;1.60;;
43114;SDS011;28727;50.068;14.452;2022-07-06T12:24:18;8.55;;;2.03;;
43114;SDS011;28727;50.068;14.452;2022-07-06T12:26:54;2.08;;;1.48;;
43114;SDS011;28727;50.068;14.452;2022-07-06T12:29:26;3.00;;;1.58;;
43114;SDS011;28727;50.068;14.452;2022-07-06T12:31:59;4.13;;;1.58;;
43114;SDS011;28727;50.068;14.452;2022-07-06T12:34:32;3.05;;;1.70;;
43114;SDS011;28727;50.068;14.452;2022-07-06T12:37:08;3.83;;;1.75;;
43114;SDS011;28727;50.068;14.452;2022-07-06T12:39:46;5.05;;;1.52;;
43114;SDS011;28727;50.068;14.452;2022-07-06T12:42:19;2.72;;;1.48;;
43114;SDS011;28727;50.068;14.452;2022-07-06T12:44:51;2.50;;;1.40;;
43114;SDS011;28727;50.068;14.452;2022-07-06T12:47:24;2.13;;;1.70;;
43114;SDS011;28727;50.068;14.452;2022-07-06T12:50:06;4.97;;;1.60;;
43114;SDS011;28727;50.068;14.452;2022-07-06T12:52:39;3.75;;;2.03;;
43114;SDS011;28727;50.068;14.452;2022-07-06T12:55:11;4.93;;;1.90;;
43114;SDS011;28727;50.068;14.452;2022-07-06T12:57:47;4.85;;;1.63;;
43114;SDS011;28727;50.068;14.452;2022-07-06T13:00:20;2.58;;;1.70;;
43114;SDS011;28727;50.068;14.452;2022-07-06T13:02:53;6.55;;;2.05;;
43114;SDS011;28727;50.068;14.452;2022-07-06T13:05:48;4.93;;;1.60;;
43114;SDS011;28727;50.068;14.452;2022-07-06T13:08:20;8.68;;;1.73;;
43114;SDS011;28727;50.068;14.452;2022-07-06T13:10:52;4.18;;;1.70;;
43114;SDS011;28727;50.068;14.452;2022-07-06T13:13:24;5.53;;;1.77;;
43114;SDS011;28727;50.068;14.452;2022-07-06T13:15:58;4.70;;;1.58;;
43114;SDS011;28727;50.068;14.452;2022-07-06T13:18:30;5.03;;;1.77;;
43114;SDS011;28727;50.068;14.452;2022-07-06T13:21:02;4.03;;;1.70;;
43114;SDS011;28727;50.068;14.452;2022-07-06T13:23:34;2.67;;;2.17;;
43114;SDS011;28727;50.068;14.452;2022-07-06T13:26:05;7.22;;;3.25;;
43114;SDS011;28727;50.068;14.452;2022-07-06T13:28:37;4.20;;;1.77;;
43114;SDS011;28727;50.068;14.452;2022-07-06T13:31:09;3.70;;;2.47;;
43114;SDS011;28727;50.068;14.452;2022-07-06T13:33:43;7.00;;;1.70;;
43114;SDS011;28727;50.068;14.452;2022-07-06T13:36:14;6.93;;;1.73;;
43114;SDS011;28727;50.068;14.452;2022-07-06T13:38:47;5.53;;;1.60;;
43114;SDS011;28727;50.068;14.452;2022-07-06T13:41:19;3.75;;;1.80;;
43114;SDS011;28727;50.068;14.452;2022-07-06T13:43:50;2.53;;;1.30;;
43114;SDS011;28727;50.068;14.452;2022-07-06T13:46:22;3.40;;;1.63;;
43114;SDS011;28727;50.068;14.452;2022-07-06T13:48:54;4.35;;;1.60;;
43114;SDS011;28727;50.068;14.452;2022-07-06T13:51:27;2.33;;;1.40;;
43114;SDS011;28727;50.068;14.452;2022-07-06T13:54:00;4.75;;;1.60;;
43114;SDS011;28727;50.068;14.452;2022-07-06T13:56:32;3.83;;;1.40;;
43114;SDS011;28727;50.068;14.452;2022-07-06T13:59:06;5.75;;;1.80;;
43114;SDS011;28727;50.068;14.452;2022-07-06T14:01:38;5.68;;;1.67;;
43114;SDS011;28727;50.068;14.452;2022-07-06T14:04:10;4.18;;;1.27;;
43114;SDS011;28727;50.068;14.452;2022-07-06T14:06:41;3.63;;;1.50;;
43114;SDS011;28727;50.068;14.452;2022-07-06T14:09:14;3.85;;;1.92;;
43114;SDS011;28727;50.068;14.452;2022-07-06T14:11:45;3.05;;;1.60;;
43114;SDS011;28727;50.068;14.452;2022-07-06T14:14:17;2.40;;;1.35;;
43114;SDS011;28727;50.068;14.452;2022-07-06T14:16:51;3.92;;;1.50;;
43114;SDS011;28727;50.068;14.452;2022-07-06T14:19:23;2.83;;;1.42;;
43114;SDS011;28727;50.068;14.452;2022-07-06T14:21:55;6.70;;;1.50;;
43114;SDS011;28727;50.068;14.452;2022-07-06T14:24:28;3.70;;;1.48;;
43114;SDS011;28727;50.068;14.452;2022-07-06T14:27:02;4.30;;;1.60;;
43114;SDS011;28727;50.068;14.452;2022-07-06T14:29:34;2.95;;;1.70;;
43114;SDS011;28727;50.068;14.452;2022-07-06T14:32:06;2.42;;;1.30;;
43114;SDS011;28727;50.068;14.452;2022-07-06T14:34:38;3.20;;;1.55;;
43114;SDS011;28727;50.068;14.452;2022-07-06T14:37:10;5.88;;;1.40;;
43114;SDS011;28727;50.068;14.452;2022-07-06T14:39:50;4.15;;;1.27;;
43114;SDS011;28727;50.068;14.452;2022-07-06T14:42:22;3.55;;;1.20;;
43114;SDS011;28727;50.068;14.452;2022-07-06T14:44:54;3.30;;;1.20;;
43114;SDS011;28727;50.068;14.452;2022-07-06T14:47:25;3.25;;;1.25;;
43114;SDS011;28727;50.068;14.452;2022-07-06T14:49:57;3.03;;;1.20;;
43114;SDS011;28727;50.068;14.452;2022-07-06T14:52:29;3.85;;;1.52;;
43114;SDS011;28727;50.068;14.452;2022-07-06T14:55:01;2.47;;;1.20;;
43114;SDS011;28727;50.068;14.452;2022-07-06T14:57:33;3.58;;;1.45;;
43114;SDS011;28727;50.068;14.452;2022-07-06T15:00:04;5.05;;;1.65;;
43114;SDS011;28727;50.068;14.452;2022-07-06T15:02:37;2.20;;;1.20;;
43114;SDS011;28727;50.068;14.452;2022-07-06T15:05:09;7.78;;;1.80;;
43114;SDS011;28727;50.068;14.452;2022-07-06T15:07:42;7.05;;;1.40;;
43114;SDS011;28727;50.068;14.452;2022-07-06T15:10:14;3.90;;;1.00;;
43114;SDS011;28727;50.068;14.452;2022-07-06T15:12:45;4.97;;;1.38;;
43114;SDS011;28727;50.068;14.452;2022-07-06T15:15:19;6.22;;;1.20;;
43114;SDS011;28727;50.068;14.452;2022-07-06T15:18:11;3.00;;;1.10;;
43114;SDS011;28727;50.068;14.452;2022-07-06T15:20:43;5.28;;;1.42;;
43114;SDS011;28727;50.068;14.452;2022-07-06T15:23:15;8.07;;;1.90;;
43114;SDS011;28727;50.068;14.452;2022-07-06T15:25:47;6.65;;;1.35;;